Time;durP1;ratioP1;P1;durP2;ratioP2;P2;SDS_P1;SDS_P2;PMS_P1;PMS_P2;Temp;Humidity;BMP_temperature;BMP_pressure;BME280_temperature;BME280_humidity;BME280_pressure;Samples;Min_cycle;Max_cycle;Signal;HPM_P1;HPM_P2
2022/12/14 00:01:32;;;;;;;11.75;8.75;;;;;;;13.49;39.44;92110.00;4964607;28;20053;-91
2022/12/14 00:03:58;;;;;;;12.10;8.88;;;;;;;13.49;39.44;92106.53;4969659;28;20039;-92
2022/12/14 00:06:25;;;;;;;10.95;8.55;;;;;;;13.43;39.74;92116.72;4984241;28;20038;-90
2022/12/14 00:08:51;;;;;;;10.32;8.07;;;;;;;13.43;39.76;92116.72;4984284;28;20212;-91
2022/12/14 00:11:18;;;;;;;11.43;8.30;;;;;;;13.42;39.58;92118.00;4992805;28;20039;-92
2022/12/14 00:13:44;;;;;;;10.77;8.32;;;;;;;13.40;40.00;92107.63;4964017;28;20041;-91
2022/12/14 00:16:11;;;;;;;11.35;8.05;;;;;;;13.41;39.96;92100.97;4952336;28;20055;-92
2022/12/14 00:18:36;;;;;;;11.50;8.15;;;;;;;13.40;39.69;92104.94;4992678;28;20031;-90
2022/12/14 00:21:04;;;;;;;10.30;7.38;;;;;;;13.38;39.72;92091.13;4969184;28;20385;-90
2022/12/14 00:23:30;;;;;;;11.57;7.65;;;;;;;13.40;39.62;92094.06;4953214;28;20042;-90
2022/12/14 00:25:55;;;;;;;10.10;7.78;;;;;;;13.37;39.86;92087.69;4954119;28;20055;-89
2022/12/14 00:28:21;;;;;;;10.10;7.82;;;;;;;13.42;39.63;92090.84;4987240;28;20088;-91
2022/12/14 00:30:46;;;;;;;11.15;8.05;;;;;;;13.39;39.92;92081.75;5004988;28;20046;-91
2022/12/14 00:33:12;;;;;;;11.40;7.68;;;;;;;13.43;39.74;92076.00;4987655;28;20062;-90
2022/12/14 00:35:37;;;;;;;8.30;6.82;;;;;;;13.43;40.06;92071.31;5004326;28;20034;-90
2022/12/14 00:38:02;;;;;;;10.63;7.72;;;;;;;13.40;39.91;92064.22;4977984;28;20547;-90
2022/12/14 00:40:28;;;;;;;10.35;7.07;;;;;;;13.45;39.62;92062.66;4952708;28;20039;-90
2022/12/14 00:42:53;;;;;;;10.15;7.32;;;;;;;13.45;39.59;92051.81;4969615;28;20042;-91
2022/12/14 00:45:18;;;;;;;10.02;6.85;;;;;;;13.46;39.61;92055.97;4952664;28;20058;-92
2022/12/14 00:47:44;;;;;;;11.23;6.90;;;;;;;13.48;39.57;92045.34;4982635;28;20489;-91
2022/12/14 00:50:09;;;;;;;8.60;6.07;;;;;;;13.50;39.17;92043.59;4976734;28;20042;-92
2022/12/14 00:52:35;;;;;;;9.73;6.97;;;;;;;13.50;39.57;92040.16;4968976;28;20046;-92
2022/12/14 00:55:00;;;;;;;9.15;7.03;;;;;;;13.46;40.04;92034.28;4998454;28;20583;-92
2022/12/14 00:57:27;;;;;;;9.05;6.82;;;;;;;13.44;39.64;92034.78;4953276;28;20049;-91
2022/12/14 00:59:53;;;;;;;9.27;7.00;;;;;;;13.46;39.40;92039.69;4984059;28;20026;-90
2022/12/14 01:02:18;;;;;;;9.27;6.45;;;;;;;13.42;39.89;92033.84;4976352;28;20053;-92
2022/12/14 01:04:44;;;;;;;8.65;7.07;;;;;;;13.46;39.87;92028.84;4952591;28;20090;-91
2022/12/14 01:07:09;;;;;;;8.32;6.35;;;;;;;13.45;40.01;92030.81;4968138;28;20039;-91
2022/12/14 01:09:34;;;;;;;8.88;6.53;;;;;;;13.45;39.99;92022.69;4980846;28;20456;-89
2022/12/14 01:12:03;;;;;;;8.25;5.80;;;;;;;13.47;39.42;92014.03;4987381;28;20043;-92
2022/12/14 01:14:28;;;;;;;9.93;5.93;;;;;;;13.49;39.48;92019.69;4976362;28;20378;-91
2022/12/14 01:16:54;;;;;;;7.90;5.68;;;;;;;13.47;39.54;92009.31;4956954;28;20059;-90
2022/12/14 01:19:19;;;;;;;8.02;5.88;;;;;;;13.46;39.37;92016.00;4991976;28;20050;-92
2022/12/14 01:21:45;;;;;;;9.15;6.20;;;;;;;13.47;39.31;92022.91;4965203;28;20043;-91
2022/12/14 01:24:10;;;;;;;7.55;5.97;;;;;;;13.43;39.59;92019.00;4997059;28;20524;-91
2022/12/14 01:26:36;;;;;;;7.47;5.30;;;;;;;13.45;39.73;92035.50;4970368;28;20687;-91
2022/12/14 01:29:02;;;;;;;7.38;5.43;;;;;;;13.42;39.79;92031.13;4986856;28;20050;-91
2022/12/14 01:31:34;;;;;;;11.30;5.40;;;;;;;13.43;39.77;92021.72;4971463;28;20042;-89
2022/12/14 01:34:00;;;;;;;8.88;6.05;;;;;;;13.42;39.58;92029.16;5003257;28;20120;-91
2022/12/14 01:36:27;;;;;;;6.85;5.55;;;;;;;13.46;39.32;92021.44;5003519;28;20480;-92
2022/12/14 01:38:57;;;;;;;7.50;5.55;;;;;;;13.43;39.79;92021.72;4974265;28;20142;-92
2022/12/14 01:41:25;;;;;;;9.23;5.90;;;;;;;13.43;39.51;92019.00;4967784;28;20508;-91
2022/12/14 01:43:56;;;;;;;7.03;5.53;;;;;;;13.45;39.40;92013.78;4984545;28;20458;-92
2022/12/14 01:46:39;;;;;;;7.78;5.22;;;;;;;13.47;39.54;92017.47;4960341;28;20047;-92
2022/12/14 01:49:06;;;;;;;7.10;5.45;;;;;;;13.45;39.81;92017.25;4979929;28;20425;-91
2022/12/14 01:51:32;;;;;;;9.13;5.30;;;;;;;13.45;39.72;92014.53;4965125;28;20055;-92
2022/12/14 01:53:57;;;;;;;8.20;5.00;;;;;;;13.47;39.84;92020.19;4959151;28;20060;-89
2022/12/14 01:56:22;;;;;;;6.25;4.80;;;;;;;13.44;39.97;92015.03;4970573;28;20046;-91
2022/12/14 01:58:48;;;;;;;7.95;5.13;;;;;;;13.44;39.59;92006.91;4971922;28;20038;-91
2022/12/14 02:01:13;;;;;;;6.57;5.13;;;;;;;13.41;39.49;92007.94;4990129;28;20047;-91
2022/12/14 02:03:47;;;;;;;5.82;4.68;;;;;;;13.45;39.55;92011.81;4972693;28;20038;-91
2022/12/14 02:06:21;;;;;;;6.82;4.85;;;;;;;13.43;39.34;92005.44;4983998;28;20893;-89
2022/12/14 02:08:47;;;;;;;8.32;5.18;;;;;;;13.42;39.55;91993.13;4988394;28;20039;-91
2022/12/14 02:11:12;;;;;;;6.60;4.75;;;;;;;13.44;39.76;92004.19;4981051;28;20512;-91
2022/12/14 02:13:39;;;;;;;7.30;5.13;;;;;;;13.47;39.80;91997.75;4986252;28;20042;-91
2022/12/14 02:16:05;;;;;;;7.32;5.18;;;;;;;13.45;39.45;92003.69;4961179;28;20054;-91
2022/12/14 02:18:30;;;;;;;6.18;4.75;;;;;;;13.48;39.71;92010.06;4986411;28;20512;-93
2022/12/14 02:20:59;;;;;;;7.30;4.72;;;;;;;13.46;39.70;92007.13;4971232;28;20464;-90
2022/12/14 02:23:43;;;;;;;7.03;4.78;;;;;;;13.49;39.50;92004.13;4972196;28;20039;-91
2022/12/14 02:26:21;;;;;;;6.18;3.92;;;;;;;13.49;39.51;91995.25;4999082;28;20042;-91
2022/12/14 02:29:04;;;;;;;7.35;4.38;;;;;;;13.51;39.12;92003.63;4976412;28;20026;-91
2022/12/14 02:31:51;;;;;;;6.38;4.55;;;;;;;13.47;39.58;91989.59;4980740;28;20043;-90
2022/12/14 02:34:44;;;;;;;6.57;4.50;;;;;;;13.46;39.08;91983.44;4967841;28;20182;-91
2022/12/14 02:37:18;;;;;;;6.05;4.50;;;;;;;13.41;39.52;91978.09;4970624;28;20047;-90
2022/12/14 02:39:57;;;;;;;6.55;4.30;;;;;;;13.40;39.89;91974.66;4983105;28;20028;-91
2022/12/14 02:42:34;;;;;;;5.30;4.13;;;;;;;13.41;39.30;91954.41;5011096;28;20121;-92
2022/12/14 02:45:16;;;;;;;5.53;4.20;;;;;;;13.41;39.15;91957.13;4970807;28;20039;-92
2022/12/14 02:47:53;;;;;;;6.22;4.18;;;;;;;13.45;39.35;91962.22;4972579;28;20047;-91
2022/12/14 02:50:22;;;;;;;5.53;3.90;;;;;;;13.43;39.42;91948.44;4987733;28;20256;-89
2022/12/14 02:53:00;;;;;;;6.65;4.15;;;;;;;13.43;38.99;91934.84;4987381;28;20039;-92
2022/12/14 02:55:37;;;;;;;5.45;4.32;;;;;;;13.43;39.56;91945.72;4986881;28;20035;-89
2022/12/14 02:58:16;;;;;;;4.70;3.90;;;;;;;13.41;39.33;91946.25;4957114;28;20051;-89
2022/12/14 03:00:41;;;;;;;5.80;3.83;;;;;;;13.42;39.39;91939.59;4975740;28;20425;-91
2022/12/14 03:03:07;;;;;;;5.57;4.57;;;;;;;13.44;39.73;91942.50;4978272;28;20035;-92
2022/12/14 03:05:32;;;;;;;5.38;4.30;;;;;;;13.48;39.31;91934.78;4986730;28;20039;-92
2022/12/14 03:08:00;;;;;;;5.25;4.15;;;;;;;13.42;39.49;91945.00;4971398;28;20051;-91
2022/12/14 03:10:35;;;;;;;5.85;4.30;;;;;;;13.43;39.56;91943.00;4977185;28;20440;-90
2022/12/14 03:13:04;;;;;;;5.55;3.75;;;;;;;13.42;39.63;91952.41;4990212;28;20624;-90
2022/12/14 03:15:29;;;;;;;5.72;4.10;;;;;;;13.42;39.63;91949.69;4992693;28;20104;-91
2022/12/14 03:17:57;;;;;;;5.07;4.00;;;;;;;13.40;39.44;91954.91;4970129;28;20038;-92
2022/12/14 03:20:24;;;;;;;4.13;3.42;;;;;;;13.40;39.20;91952.94;4969621;28;20082;-90
2022/12/14 03:23:06;;;;;;;5.43;3.85;;;;;;;13.41;39.29;91965.25;4984680;28;20038;-90
2022/12/14 03:25:34;;;;;;;4.35;3.42;;;;;;;13.41;39.57;91964.53;5005480;28;20554;-91
2022/12/14 03:28:09;;;;;;;4.55;3.15;;;;;;;13.41;39.24;91956.38;4989235;28;20050;-92
2022/12/14 03:30:35;;;;;;;7.13;3.95;;;;;;;13.41;39.54;91942.81;4978328;28;20043;-90
2022/12/14 03:33:03;;;;;;;5.28;3.65;;;;;;;13.43;39.19;91938.31;5005639;28;20090;-92
2022/12/14 03:35:33;;;;;;;6.32;3.65;;;;;;;13.43;39.25;91935.59;4989427;28;20052;-90
2022/12/14 03:38:17;;;;;;;5.70;3.47;;;;;;;13.44;39.63;91930.91;4989204;28;20049;-90
2022/12/14 03:41:02;;;;;;;4.45;3.47;;;;;;;13.44;39.67;91925.47;4980584;28;20035;-91
2022/12/14 03:43:48;;;;;;;5.00;3.20;;;;;;;13.44;39.80;91906.47;4966260;28;20031;-92
2022/12/14 03:46:22;;;;;;;5.18;4.00;;;;;;;13.45;39.09;91891.66;4985245;28;20126;-90
2022/12/14 03:48:50;;;;;;;4.90;3.72;;;;;;;13.46;39.13;91901.25;4950907;28;20039;-91
2022/12/14 03:51:36;;;;;;;4.53;3.38;;;;;;;13.46;39.45;91903.97;4959106;28;20066;-91
2022/12/14 03:54:08;;;;;;;5.75;3.35;;;;;;;13.47;39.61;91906.19;4973245;28;20129;-92
2022/12/14 03:56:37;;;;;;;5.07;3.70;;;;;;;13.47;39.13;91906.19;4988241;28;20058;-90
2022/12/14 03:59:07;;;;;;;5.00;3.53;;;;;;;13.45;39.75;91911.38;4969499;28;20379;-91
2022/12/14 04:01:42;;;;;;;4.33;3.07;;;;;;;13.46;39.23;91923.72;4989196;28;20496;-90
2022/12/14 04:04:21;;;;;;;4.35;3.20;;;;;;;13.47;39.29;91924.44;4968584;28;20285;-92
2022/12/14 04:06:56;;;;;;;4.90;3.70;;;;;;;13.45;38.92;91930.38;4986093;28;20093;-90
2022/12/14 04:09:36;;;;;;;4.28;3.45;;;;;;;13.43;39.31;91929.44;4953083;28;20046;-92
2022/12/14 04:20:46;;;;;;;4.82;3.10;;;;;;;13.42;39.28;91911.69;4963571;28;20082;-91
2022/12/14 04:26:01;;;;;;;5.82;3.35;;;;;;;13.42;39.34;91919.84;5000174;28;20077;-90
2022/12/14 04:26:04;;;;;;;4.35;3.13;;;;;;;13.41;39.63;91918.38;4988499;28;20480;-90
2022/12/14 04:31:24;;;;;;;4.30;3.33;;;;;;;13.45;39.27;91911.38;4951474;28;20058;-90
2022/12/14 04:33:52;;;;;;;4.07;2.70;;;;;;;13.44;39.37;91918.06;4983470;28;20420;-91
2022/12/14 04:36:31;;;;;;;4.30;2.83;;;;;;;13.45;39.12;91903.25;4988348;28;20496;-92
2022/12/14 04:39:03;;;;;;;3.72;3.05;;;;;;;13.48;39.17;91896.78;4999091;28;20054;-90
2022/12/14 04:41:31;;;;;;;4.43;3.00;;;;;;;13.45;39.33;91889.66;4968483;28;20117;-92
2022/12/14 04:43:58;;;;;;;3.78;3.05;;;;;;;13.47;39.20;91902.72;4984126;28;20070;-89
2022/12/14 04:46:25;;;;;;;4.10;3.13;;;;;;;13.43;39.17;91889.44;5004335;28;20353;-89
2022/12/14 04:49:11;;;;;;;4.95;3.08;;;;;;;13.47;39.20;91902.72;4981897;28;20045;-90
2022/12/14 04:51:48;;;;;;;8.90;3.67;;;;;;;13.47;39.26;91892.59;4990575;28;20468;-88
2022/12/14 04:54:39;;;;;;;4.72;3.30;;;;;;;13.43;39.55;91881.31;4998723;28;20086;-92
2022/12/14 04:57:29;;;;;;;7.20;3.17;;;;;;;13.46;39.39;91885.72;4968912;28;20043;-90
2022/12/14 04:59:55;;;;;;;6.13;3.45;;;;;;;13.43;39.55;91883.28;4967670;28;20827;-90
2022/12/14 05:02:35;;;;;;;5.57;3.05;;;;;;;13.38;39.23;91891.00;4965230;28;20035;-92
2022/12/14 05:05:13;;;;;;;3.60;3.17;;;;;;;13.42;39.24;91890.72;4951781;28;20130;-91
2022/12/14 05:07:46;;;;;;;5.85;2.80;;;;;;;13.49;39.51;91879.25;4923538;28;20031;-90
2022/12/14 05:10:17;;;;;;;5.10;3.00;;;;;;;13.50;39.15;91874.56;4968550;28;20409;-92
2022/12/14 05:12:56;;;;;;;;;;;;;;;13.36;35.25;91858.22;4987750;28;20039;-92
2022/12/14 05:15:29;;;;;;;9.82;5.82;;;;;;;13.22;37.27;91843.13;4982990;28;19928;-92
2022/12/14 05:17:54;;;;;;;7.97;5.35;;;;;;;13.23;36.94;91838.41;4950320;28;20043;-92
2022/12/14 05:20:21;;;;;;;12.20;4.78;;;;;;;13.22;37.29;91847.81;5000781;28;20142;-91
2022/12/14 05:22:48;;;;;;;13.75;5.47;;;;;;;13.24;37.74;91848.75;4974230;28;20168;-90
2022/12/14 05:25:14;;;;;;;13.95;5.80;;;;;;;13.22;37.57;91848.53;4966975;28;20124;-91
2022/12/14 05:27:40;;;;;;;17.77;6.45;;;;;;;13.24;37.26;91845.31;4968248;28;20481;-91
2022/12/14 05:30:06;;;;;;;11.23;5.88;;;;;;;13.29;37.60;91836.38;4970519;28;20633;-91
2022/12/14 05:32:31;;;;;;;74.75;39.25;;;;;;;13.31;38.21;91836.59;4936557;28;20043;-91
2022/12/14 05:34:57;;;;;;;181.52;146.35;;;;;;;13.32;38.72;91827.19;4949291;28;20055;-94
2022/12/14 05:37:22;;;;;;;318.17;206.35;;;;;;;13.32;38.88;91813.63;4960346;28;20066;-93
2022/12/14 05:39:48;;;;;;;13.63;7.82;;;;;;;13.39;38.93;91823.91;4948491;28;20039;-93
2022/12/14 05:42:16;;;;;;;262.58;217.13;;;;;;;13.40;38.56;91822.66;4954847;28;20118;-91
2022/12/14 05:44:41;;;;;;;53.28;42.15;;;;;;;13.43;38.51;91834.44;4957545;28;20034;-93
2022/12/14 05:47:07;;;;;;;18.85;12.85;;;;;;;13.49;38.79;91830.41;4953655;28;20089;-93
2022/12/14 05:49:32;;;;;;;59.00;22.17;;;;;;;13.48;38.86;91831.63;4987818;28;20630;-90
2022/12/14 05:51:58;;;;;;;40.53;16.00;;;;;;;13.46;38.47;91834.13;4964610;28;20114;-92
2022/12/14 05:54:23;;;;;;;26.75;12.38;;;;;;;13.51;38.60;91840.72;4950851;28;20057;-95
2022/12/14 05:56:49;;;;;;;25.83;13.35;;;;;;;13.43;39.00;91837.88;4926629;28;20122;-90
2022/12/14 05:59:15;;;;;;;65.90;21.75;;;;;;;13.51;38.96;91838.03;4943111;28;20047;-91
2022/12/14 06:01:43;;;;;;;52.38;19.65;;;;;;;13.53;39.00;91835.53;4928888;28;20054;-92
2022/12/14 06:04:12;;;;;;;61.13;20.55;;;;;;;13.51;38.66;91838.75;4941938;28;20047;-93
2022/12/14 06:06:39;;;;;;;104.10;52.45;;;;;;;13.51;38.54;91836.03;4926058;28;20039;-92
2022/12/14 06:09:06;;;;;;;94.50;46.60;;;;;;;13.57;38.42;91835.97;4922540;28;20038;-91
2022/12/14 06:11:31;;;;;;;153.20;72.10;;;;;;;13.49;38.65;91835.09;4945732;28;20046;-93
2022/12/14 06:13:57;;;;;;;177.27;85.82;;;;;;;13.47;37.31;91834.88;4940945;28;20046;-93
2022/12/14 06:16:23;;;;;;;152.93;73.38;;;;;;;13.35;36.34;91829.63;4955731;28;20055;-91
2022/12/14 06:18:56;;;;;;;148.07;69.32;;;;;;;13.35;36.52;91831.59;4972226;28;20038;-90
2022/12/14 06:21:24;;;;;;;130.32;63.97;;;;;;;13.37;36.78;91832.56;4940371;28;20400;-93
2022/12/14 06:23:50;;;;;;;134.95;63.63;;;;;;;13.41;37.40;91834.97;4942991;28;20039;-94
2022/12/14 06:26:15;;;;;;;135.13;65.25;;;;;;;13.43;37.60;91829.00;4949015;28;20370;-94
2022/12/14 06:28:41;;;;;;;140.32;63.50;;;;;;;13.43;38.31;91821.59;4939975;28;20035;-92
2022/12/14 06:31:06;;;;;;;130.73;57.10;;;;;;;13.47;38.00;91830.19;4977445;28;20074;-90
2022/12/14 06:33:33;;;;;;;142.10;68.63;;;;;;;13.48;37.98;91837.06;4949730;28;20043;-92
2022/12/14 06:35:59;;;;;;;124.38;65.40;;;;;;;13.48;38.01;91833.63;4988901;28;20075;-95
2022/12/14 06:38:26;;;;;;;127.80;61.05;;;;;;;13.49;38.12;91833.09;4955633;28;20691;-90
2022/12/14 06:40:52;;;;;;;137.98;62.83;;;;;;;13.51;38.23;91843.44;4956121;28;20067;-91
2022/12/14 06:43:27;;;;;;;145.77;59.97;;;;;;;13.52;37.92;91825.91;4951304;28;20043;-93
2022/12/14 06:45:53;;;;;;;119.22;57.17;;;;;;;13.53;38.27;91832.81;4940776;28;20046;-92
2022/12/14 06:48:20;;;;;;;129.65;60.63;;;;;;;13.51;38.14;91816.31;4950602;28;20047;-92
2022/12/14 06:50:45;;;;;;;134.27;56.75;;;;;;;13.55;38.15;91809.34;4955798;28;20047;-93
2022/12/14 06:53:18;;;;;;;155.82;69.68;;;;;;;13.54;38.39;91804.41;4962723;28;20062;-93
2022/12/14 06:55:44;;;;;;;150.98;66.53;;;;;;;13.57;37.85;91795.97;4926765;29;20054;-92
2022/12/14 06:58:11;;;;;;;188.82;92.40;;;;;;;13.64;38.39;91800.78;4949532;28;20072;-90
2022/12/14 07:00:41;;;;;;;183.50;93.10;;;;;;;13.67;37.67;91794.31;4937598;29;20058;-91
2022/12/14 07:03:07;;;;;;;225.75;108.43;;;;;;;13.63;38.08;91795.88;4950025;28;20179;-89
2022/12/14 07:05:33;;;;;;;204.90;104.93;;;;;;;13.72;38.42;91798.94;4934414;29;20087;-90
2022/12/14 07:07:59;;;;;;;218.43;99.35;;;;;;;13.77;38.21;91810.94;4954529;28;20071;-90
2022/12/14 07:10:25;;;;;;;297.23;194.80;;;;;;;13.74;37.87;91803.84;4922781;28;20050;-89
2022/12/14 07:12:51;;;;;;;741.78;382.83;;;;;;;13.76;37.87;91806.03;4934488;28;20035;-91
2022/12/14 07:15:17;;;;;;;222.60;106.18;;;;;;;13.68;38.36;91812.06;4918037;28;20082;-90
2022/12/14 07:17:42;;;;;;;182.15;91.47;;;;;;;13.66;38.06;91817.28;4946867;28;20054;-90
2022/12/14 07:20:08;;;;;;;190.93;96.93;;;;;;;13.67;38.36;91818.00;4920345;28;20483;-89
2022/12/14 07:22:34;;;;;;;162.07;88.28;;;;;;;13.62;38.27;91825.03;4917012;28;20051;-90
2022/12/14 07:25:00;;;;;;;155.05;79.95;;;;;;;13.64;38.34;91819.78;4960731;28;20055;-89
2022/12/14 07:27:26;;;;;;;150.90;81.82;;;;;;;13.64;38.37;91806.22;4945170;28;20035;-91
2022/12/14 07:29:51;;;;;;;164.75;78.32;;;;;;;13.64;38.50;91808.22;4970339;28;20042;-90
2022/12/14 07:32:17;;;;;;;144.75;73.93;;;;;;;13.71;38.71;91800.19;4950531;28;20502;-92
2022/12/14 07:34:42;;;;;;;181.93;88.35;;;;;;;13.61;38.39;91811.97;4966002;28;20035;-91
2022/12/14 07:37:20;;;;;;;155.23;75.00;;;;;;;13.66;38.51;91811.13;4955869;28;20054;-93
2022/12/14 07:39:47;;;;;;;164.48;79.38;;;;;;;13.69;38.24;91804.66;4979718;28;20182;-91
2022/12/14 07:42:12;;;;;;;171.95;76.60;;;;;;;13.71;38.35;91805.59;4951297;28;20034;-92
2022/12/14 07:44:38;;;;;;;158.63;74.88;;;;;;;13.72;38.36;91804.34;4956240;28;20101;-91
2022/12/14 07:47:03;;;;;;;154.43;75.93;;;;;;;13.62;38.59;91802.56;4942405;28;20132;-89
2022/12/14 07:49:29;;;;;;;144.18;71.97;;;;;;;13.66;38.71;91797.53;4952766;28;20047;-92
2022/12/14 07:51:54;;;;;;;146.88;70.57;;;;;;;13.67;38.42;91799.75;4981607;28;20077;-91
2022/12/14 07:54:20;;;;;;;150.43;72.90;;;;;;;13.66;38.56;91797.53;4966881;28;20038;-91
2022/12/14 07:56:46;;;;;;;153.90;74.80;;;;;;;13.65;38.53;91804.97;4982639;28;20039;-89
2022/12/14 07:59:13;;;;;;;152.30;72.60;;;;;;;13.65;38.63;91788.66;4933232;28;20039;-90
2022/12/14 08:01:39;;;;;;;147.48;73.38;;;;;;;13.66;38.54;91775.81;4955823;28;20047;-93
2022/12/14 08:04:06;;;;;;;150.30;70.75;;;;;;;13.70;38.33;91785.13;4970597;28;20047;-92
2022/12/14 08:06:31;;;;;;;150.95;76.60;;;;;;;13.68;38.23;91786.91;4970421;28;20097;-91
2022/12/14 08:08:57;;;;;;;147.55;75.97;;;;;;;13.73;38.28;91783.38;4951664;28;20044;-91
2022/12/14 08:11:23;;;;;;;206.10;93.13;;;;;;;13.67;38.45;91780.72;4937633;28;20412;-90
2022/12/14 08:13:59;;;;;;;170.45;88.72;;;;;;;13.76;38.34;91778.88;4947398;28;20054;-90
2022/12/14 08:16:25;;;;;;;172.52;84.55;;;;;;;13.74;38.45;91782.13;4931935;28;20592;-91
2022/12/14 08:18:51;;;;;;;185.52;89.60;;;;;;;13.82;38.43;91779.53;4965870;28;20118;-92
2022/12/14 08:21:19;;;;;;;184.82;87.13;;;;;;;13.76;38.56;91778.88;4950267;28;20058;-88
2022/12/14 08:23:45;;;;;;;171.07;87.15;;;;;;;13.77;38.46;91774.91;4981908;28;20058;-89
2022/12/14 08:26:10;;;;;;;161.55;80.68;;;;;;;13.71;38.56;91772.28;4949339;28;20040;-92
2022/12/14 08:28:36;;;;;;;179.27;80.82;;;;;;;13.71;38.81;91770.31;4932891;29;20397;-93
2022/12/14 08:31:10;;;;;;;143.38;76.97;;;;;;;13.77;38.95;91772.94;4951561;28;20038;-91
2022/12/14 08:33:36;;;;;;;154.50;76.50;;;;;;;13.70;38.92;91776.97;4953627;28;20063;-91
2022/12/14 08:36:09;;;;;;;157.13;74.18;;;;;;;13.72;38.70;91792.75;4967896;28;20046;-93
2022/12/14 08:39:22;;;;;;;140.90;74.50;;;;;;;13.77;38.74;91785.78;4956677;28;20050;-95
2022/12/14 08:41:48;;;;;;;132.70;69.50;;;;;;;13.79;38.59;91784.00;4896792;29;20044;-93
2022/12/14 08:44:46;;;;;;;147.32;70.35;;;;;;;13.77;38.97;91797.38;4918047;29;20108;-96
2022/12/14 08:47:12;;;;;;;155.27;74.13;;;;;;;13.71;38.30;91794.75;4941929;23;20059;-94
2022/12/14 08:49:37;;;;;;;144.88;72.50;;;;;;;13.72;38.47;91790.78;4971763;28;20034;-92
2022/12/14 08:52:03;;;;;;;152.25;75.57;;;;;;;13.70;38.84;91793.28;4986096;28;20050;-93
2022/12/14 08:54:28;;;;;;;145.23;77.43;;;;;;;13.69;39.01;91786.38;4985551;28;20039;-91
2022/12/14 08:57:09;;;;;;;183.02;90.55;;;;;;;13.75;38.74;91788.28;4974143;28;20039;-92
2022/12/14 08:59:40;;;;;;;164.60;83.82;;;;;;;13.81;38.51;91784.22;4977431;28;20053;-88
2022/12/14 09:02:11;;;;;;;140.93;73.50;;;;;;;13.82;38.82;91782.97;5007538;28;20052;-93
2022/12/14 09:04:40;;;;;;;142.15;75.05;;;;;;;13.81;38.77;91776.06;5003918;28;20050;-94
2022/12/14 09:07:06;;;;;;;140.82;71.00;;;;;;;13.84;38.70;91777.03;4986473;28;20456;-94
2022/12/14 09:09:34;;;;;;;141.52;73.78;;;;;;;13.75;38.80;91767.28;4976000;28;20138;-92
2022/12/14 09:12:05;;;;;;;182.77;107.53;;;;;;;13.78;38.85;91770.94;5003047;28;20042;-94
2022/12/14 09:14:32;;;;;;;;;;;;;;;13.82;38.58;91774.09;4973244;28;20050;-91
2022/12/14 09:17:00;;;;;;;137.52;68.75;;;;;;;13.85;38.95;91767.63;5003985;28;19925;-93
2022/12/14 09:19:26;;;;;;;129.45;67.72;;;;;;;13.77;38.87;91772.19;5008859;28;20046;-89
2022/12/14 09:21:51;;;;;;;126.70;64.60;;;;;;;13.78;38.86;91765.50;4983315;28;20116;-92
2022/12/14 09:24:17;;;;;;;130.15;64.18;;;;;;;13.77;38.73;91764.78;4988155;28;20713;-88
2022/12/14 09:26:43;;;;;;;123.38;63.13;;;;;;;13.75;38.86;91771.97;4987680;28;20863;-90
2022/12/14 09:29:14;;;;;;;122.75;62.75;;;;;;;13.76;39.11;91759.88;4987093;28;20117;-90
2022/12/14 09:31:41;;;;;;;127.18;59.20;;;;;;;13.81;38.92;91765.22;5003785;28;20046;-91
2022/12/14 09:34:15;;;;;;;109.03;56.78;;;;;;;13.79;39.17;91758.84;4966426;28;20125;-92
2022/12/14 09:36:41;;;;;;;118.32;57.45;;;;;;;13.79;38.99;91758.84;4990974;28;20049;-90
2022/12/14 09:39:06;;;;;;;108.13;53.15;;;;;;;13.88;38.63;91744.84;5009348;28;20042;-91
2022/12/14 09:41:35;;;;;;;121.50;63.05;;;;;;;13.82;38.99;91744.22;5000315;28;20046;-93
2022/12/14 09:44:15;;;;;;;115.35;57.15;;;;;;;13.86;39.02;91744.63;4992484;28;20042;-93
2022/12/14 09:47:18;;;;;;;108.15;58.50;;;;;;;13.83;39.06;91735.56;4993317;28;20120;-88
2022/12/14 09:49:52;;;;;;;126.43;66.50;;;;;;;13.81;39.04;91729.19;4995112;28;20045;-89
2022/12/14 09:52:38;;;;;;;125.75;67.75;;;;;;;13.80;38.87;91728.44;5009199;28;20053;-91
2022/12/14 09:55:07;;;;;;;173.07;88.07;;;;;;;13.83;39.08;91721.25;5008451;28;20045;-90
2022/12/14 09:57:35;;;;;;;149.82;75.00;;;;;;;13.85;38.95;91713.31;4994635;28;20046;-93
2022/12/14 10:00:12;;;;;;;128.60;70.18;;;;;;;13.91;38.81;91703.03;4981430;28;20066;-93
2022/12/14 10:02:45;;;;;;;146.93;70.88;;;;;;;13.88;38.75;91704.81;4989929;28;20046;-93
2022/12/14 10:05:31;;;;;;;139.45;73.40;;;;;;;13.88;38.69;91704.81;5008634;28;20057;-91
2022/12/14 10:08:15;;;;;;;155.88;79.25;;;;;;;13.92;39.32;91693.66;5012466;28;20060;-93
2022/12/14 10:11:06;;;;;;;148.75;73.00;;;;;;;13.89;39.18;91689.25;4989953;28;20042;-92
2022/12/14 10:13:31;;;;;;;143.27;72.60;;;;;;;13.88;39.11;91696.66;5010430;28;20041;-91
2022/12/14 10:16:21;;;;;;;171.18;74.47;;;;;;;13.89;39.03;91683.81;5025268;28;20053;-95
2022/12/14 10:19:17;;;;;;;162.80;76.55;;;;;;;13.88;39.01;91679.66;5012648;28;20042;-93
2022/12/14 10:21:48;;;;;;;149.48;70.72;;;;;;;13.88;39.09;91685.06;5011588;28;20046;-91
2022/12/14 10:24:19;;;;;;;159.57;70.40;;;;;;;13.82;39.72;91682.47;5002106;28;20513;-92
2022/12/14 10:26:49;;;;;;;137.35;67.80;;;;;;;13.79;39.04;91675.38;4983692;28;20053;-92
2022/12/14 10:29:20;;;;;;;148.77;66.72;;;;;;;13.84;39.21;91662.97;4996212;28;20038;-94
2022/12/14 10:31:54;;;;;;;;;;;;;;;13.91;39.13;91673.16;5029611;28;20034;-93
2022/12/14 10:34:23;;;;;;;168.10;79.63;;;;;;;13.79;37.72;91667.22;4997746;28;20342;-92
2022/12/14 10:36:53;;;;;;;146.57;70.18;;;;;;;13.82;37.93;91660.03;5014132;28;20046;-92
2022/12/14 10:39:39;;;;;;;182.93;83.95;;;;;;;13.80;37.46;91660.56;5000399;28;20042;-92
2022/12/14 10:42:13;;;;;;;178.10;84.35;;;;;;;13.82;37.80;91652.63;4976273;28;20056;-94
2022/12/14 10:44:48;;;;;;;172.40;80.93;;;;;;;13.83;38.36;91656.06;5001843;28;20056;-93
2022/12/14 10:47:36;;;;;;;170.40;76.40;;;;;;;13.81;38.59;91656.59;4993795;28;20038;-92
2022/12/14 10:50:33;;;;;;;158.00;75.57;;;;;;;13.86;38.57;91644.13;4991866;28;20158;-93
2022/12/14 10:52:58;;;;;;;159.30;72.75;;;;;;;13.85;38.47;91642.69;5015533;28;20045;-93
2022/12/14 10:55:29;;;;;;;141.93;69.15;;;;;;;13.85;38.78;91618.25;4983375;28;20393;-93
2022/12/14 10:57:55;;;;;;;167.23;68.38;;;;;;;13.86;38.65;91611.53;5013588;28;20157;-92
2022/12/14 11:00:57;;;;;;;145.25;66.05;;;;;;;13.87;38.55;91602.88;5000619;28;20089;-93
2022/12/14 11:03:29;;;;;;;125.13;61.35;;;;;;;13.89;38.75;91605.78;4995394;28;20050;-93
2022/12/14 11:09:20;;;;;;;151.82;63.83;;;;;;;13.90;39.00;91585.53;5787808;23;20050;-94
2022/12/14 11:11:46;;;;;;;129.35;60.60;;;;;;;13.87;38.56;91581.13;4977231;28;20046;-94
2022/12/14 11:14:14;;;;;;;123.13;57.53;;;;;;;13.90;38.69;91582.06;4976556;28;20038;-93
2022/12/14 11:16:40;;;;;;;130.82;62.10;;;;;;;13.87;38.79;91569.53;4987240;28;20513;-93
2022/12/14 11:19:17;;;;;;;120.93;57.92;;;;;;;13.93;38.70;91548.44;4962337;28;20046;-93
2022/12/14 11:21:43;;;;;;;116.90;57.10;;;;;;;13.89;39.20;91532.44;4981345;28;20045;-93
2022/12/14 11:24:21;;;;;;;301.30;209.75;;;;;;;13.89;39.50;91546.03;4987959;28;20046;-92
2022/12/14 11:26:46;;;;;;;111.53;53.10;;;;;;;13.87;39.02;91536.94;4983061;28;20066;-92
2022/12/14 11:29:27;;;;;;;107.28;51.17;;;;;;;13.87;39.14;91524.09;4997870;28;20483;-92
2022/12/14 11:31:59;;;;;;;103.70;51.80;;;;;;;13.91;38.92;91535.38;4966157;28;20053;-93
2022/12/14 11:34:28;;;;;;;104.85;51.45;;;;;;;13.91;38.83;91527.22;4955358;28;20049;-89
2022/12/14 11:36:55;;;;;;;92.70;47.28;;;;;;;13.88;39.29;91527.53;4993729;28;20073;-93
2022/12/14 11:39:22;;;;;;;85.47;45.83;;;;;;;13.90;38.88;91535.91;4965779;28;20050;-95
2022/12/14 11:41:57;;;;;;;93.15;44.03;;;;;;;13.92;38.95;91531.41;4962328;28;20066;-94
2022/12/14 11:44:25;;;;;;;85.20;41.92;;;;;;;13.93;38.97;91527.44;4987950;28;20105;-96
2022/12/14 11:47:28;;;;;;;87.32;40.25;;;;;;;14.00;39.01;91529.50;4949529;28;20035;-95
2022/12/14 11:50:56;;;;;;;;;;;;;;;;;;;;;
2022/12/14 11:58:55;;;;;;;73.88;37.20;;;;;;;13.96;39.20;91512.81;5185612;23;20022;-96
2022/12/14 12:01:39;;;;;;;;;;;;;;;;;;;;;